Time;durP1;ratioP1;P1;durP2;ratioP2;P2;SDS_P1;SDS_P2;PMS_P1;PMS_P2;Temp;Humidity;BMP_temperature;BMP_pressure;BME280_temperature;BME280_humidity;BME280_pressure;Samples;Min_cycle;Max_cycle;Signal;HPM_P1;HPM_P2
2023/12/18 00:01:29;;;;;;;7.63;6.17;;;1.00;99.90;;;;;;5051495;28;20269;-77
2023/12/18 00:03:55;;;;;;;10.50;6.63;;;1.00;99.90;;;;;;5058102;28;20215;-79
2023/12/18 00:06:20;;;;;;;8.37;6.40;;;0.90;99.90;;;;;;5059143;28;20601;-78
2023/12/18 00:08:46;;;;;;;7.90;6.33;;;1.00;99.90;;;;;;5064368;28;20218;-79
2023/12/18 00:11:14;;;;;;;10.53;6.67;;;1.00;99.90;;;;;;5055178;28;20178;-80
2023/12/18 00:13:40;;;;;;;12.93;8.37;;;1.00;99.90;;;;;;5055194;28;20269;-80
2023/12/18 00:16:06;;;;;;;10.90;8.30;;;1.00;99.90;;;;;;5054374;28;20182;-79
2023/12/18 00:18:32;;;;;;;12.50;8.63;;;0.90;99.90;;;;;;5054559;28;20195;-78
2023/12/18 00:20:57;;;;;;;15.00;10.13;;;0.90;99.90;;;;;;5055309;28;20245;-78
2023/12/18 00:23:23;;;;;;;14.73;10.00;;;0.90;99.90;;;;;;5056708;28;20573;-77
2023/12/18 00:25:49;;;;;;;12.37;9.87;;;0.90;99.90;;;;;;5055050;28;20172;-77
2023/12/18 00:28:15;;;;;;;13.50;9.93;;;0.90;99.90;;;;;;5057043;28;20182;-78
2023/12/18 00:30:41;;;;;;;15.23;10.70;;;0.90;99.90;;;;;;5045093;28;20232;-81
2023/12/18 00:33:07;;;;;;;19.30;10.63;;;0.90;99.90;;;;;;5059112;28;20587;-76
2023/12/18 00:35:32;;;;;;;15.30;10.67;;;0.90;99.90;;;;;;5055627;28;20166;-79
2023/12/18 00:37:58;;;;;;;14.23;10.47;;;0.90;99.90;;;;;;5054478;28;20182;-78
2023/12/18 00:40:24;;;;;;;17.57;11.60;;;0.80;99.90;;;;;;5054765;28;20534;-78
2023/12/18 00:42:49;;;;;;;18.27;12.27;;;0.80;99.90;;;;;;5054202;28;20225;-76
2023/12/18 00:45:15;;;;;;;18.80;12.50;;;0.80;99.90;;;;;;5057114;28;20182;-76
2023/12/18 00:47:42;;;;;;;19.20;12.33;;;0.80;99.90;;;;;;5062281;28;20182;-78
2023/12/18 00:50:10;;;;;;;16.97;12.03;;;0.80;99.90;;;;;;5037178;28;20187;-80
2023/12/18 00:52:36;;;;;;;19.93;12.00;;;0.80;99.90;;;;;;5057541;28;20162;-80
2023/12/18 00:55:02;;;;;;;15.70;11.33;;;0.80;99.90;;;;;;5055189;28;20184;-79
2023/12/18 00:57:28;;;;;;;19.80;12.33;;;0.80;99.90;;;;;;5053945;28;20168;-78
2023/12/18 00:59:54;;;;;;;21.57;12.30;;;0.90;99.90;;;;;;5053782;28;20274;-78
2023/12/18 01:02:20;;;;;;;15.07;11.23;;;0.90;99.90;;;;;;5057276;28;20218;-76
2023/12/18 01:04:47;;;;;;;13.33;9.47;;;0.90;99.90;;;;;;5071690;28;20180;-78
2023/12/18 01:07:13;;;;;;;12.53;10.33;;;0.90;99.90;;;;;;5054441;28;20176;-78
2023/12/18 01:09:39;;;;;;;14.97;10.30;;;0.90;99.90;;;;;;5074337;28;20171;-78
2023/12/18 01:12:05;;;;;;;16.00;10.57;;;0.90;99.90;;;;;;5056051;28;20190;-79
2023/12/18 01:14:30;;;;;;;16.93;10.10;;;0.90;99.90;;;;;;5052964;28;20235;-79
2023/12/18 01:16:56;;;;;;;16.60;10.60;;;0.90;99.90;;;;;;5053663;28;20892;-79
2023/12/18 01:19:22;;;;;;;16.07;10.20;;;0.80;99.90;;;;;;5053917;28;20570;-79
2023/12/18 01:21:48;;;;;;;12.77;9.10;;;0.80;99.90;;;;;;5054622;28;20266;-76
2023/12/18 01:24:13;;;;;;;14.10;9.83;;;0.80;99.90;;;;;;5065042;28;20218;-77
2023/12/18 01:26:39;;;;;;;15.63;9.00;;;0.70;99.90;;;;;;5054432;28;20943;-78
2023/12/18 01:29:05;;;;;;;14.33;9.33;;;0.70;99.90;;;;;;5055507;28;20170;-74
2023/12/18 01:31:31;;;;;;;11.07;9.53;;;0.70;99.90;;;;;;5053865;28;20242;-79
2023/12/18 01:33:58;;;;;;;13.73;9.40;;;0.70;99.90;;;;;;5037466;28;20182;-78
2023/12/18 01:36:24;;;;;;;13.73;9.93;;;0.70;99.90;;;;;;5056722;28;20187;-75
2023/12/18 01:38:50;;;;;;;13.97;9.80;;;0.70;99.90;;;;;;5074068;28;20207;-78
2023/12/18 01:41:19;;;;;;;11.87;8.83;;;0.70;99.90;;;;;;5063283;28;20654;-78
2023/12/18 01:43:46;;;;;;;11.80;8.87;;;0.70;99.90;;;;;;5053340;28;20256;-79
2023/12/18 01:46:21;;;;;;;10.87;8.53;;;0.70;99.90;;;;;;5053550;28;20581;-78
2023/12/18 01:48:48;;;;;;;12.87;9.63;;;0.70;99.90;;;;;;5053662;28;20163;-78
2023/12/18 01:51:14;;;;;;;13.13;9.87;;;0.70;99.90;;;;;;5053300;28;20568;-79
2023/12/18 01:53:44;;;;;;;16.33;10.60;;;0.70;99.90;;;;;;5053470;28;20177;-75
2023/12/18 01:56:12;;;;;;;15.20;10.47;;;0.80;99.90;;;;;;5056726;28;20700;-74
2023/12/18 01:58:40;;;;;;;17.40;10.77;;;0.70;99.90;;;;;;5057966;28;20355;-76
2023/12/18 02:01:06;;;;;;;18.20;10.60;;;0.70;99.90;;;;;;5069571;28;20170;-77
2023/12/18 02:03:34;;;;;;;17.27;10.07;;;0.70;99.90;;;;;;5067891;28;20214;-78
2023/12/18 02:06:00;;;;;;;12.77;9.10;;;0.60;99.90;;;;;;5058653;28;20193;-78
2023/12/18 02:08:26;;;;;;;14.63;9.40;;;0.60;99.90;;;;;;5057253;28;20182;-78
2023/12/18 02:10:53;;;;;;;15.30;9.50;;;0.60;99.90;;;;;;5057192;28;20178;-80
2023/12/18 02:13:19;;;;;;;10.20;8.30;;;0.60;99.90;;;;;;5057029;28;20208;-78
2023/12/18 02:15:45;;;;;;;12.50;8.20;;;0.60;99.90;;;;;;5061539;28;20183;-79
2023/12/18 02:18:10;;;;;;;11.00;7.73;;;0.60;99.90;;;;;;5065726;28;20187;-79
2023/12/18 02:20:41;;;;;;;13.73;7.70;;;0.60;99.90;;;;;;5058634;28;20566;-75
2023/12/18 02:23:07;;;;;;;9.70;7.43;;;0.60;99.90;;;;;;5056881;28;20215;-77
2023/12/18 02:25:33;;;;;;;10.17;7.97;;;0.60;99.90;;;;;;5056238;28;20507;-78
2023/12/18 02:28:00;;;;;;;10.70;7.60;;;0.60;99.90;;;;;;5056491;28;21197;-79
2023/12/18 02:30:26;;;;;;;11.07;8.03;;;0.60;99.90;;;;;;5056901;28;20174;-78
2023/12/18 02:32:52;;;;;;;9.50;7.50;;;0.60;99.90;;;;;;5058312;28;20206;-78
2023/12/18 02:35:18;;;;;;;12.53;8.40;;;0.60;99.90;;;;;;5040724;28;20273;-77
2023/12/18 02:37:43;;;;;;;13.37;8.80;;;0.60;99.90;;;;;;5040198;28;20617;-78
2023/12/18 02:40:09;;;;;;;14.57;8.90;;;0.60;99.90;;;;;;5056576;28;20220;-77
2023/12/18 02:42:35;;;;;;;18.37;10.73;;;0.60;99.90;;;;;;5060977;28;20198;-76
2023/12/18 02:45:02;;;;;;;16.43;10.13;;;0.60;99.90;;;;;;5060550;28;20195;-76
2023/12/18 02:47:28;;;;;;;16.10;10.37;;;0.60;99.90;;;;;;5038313;28;20261;-78
2023/12/18 02:49:54;;;;;;;16.20;10.63;;;0.60;99.90;;;;;;5056231;28;20203;-78
2023/12/18 02:52:19;;;;;;;15.40;10.40;;;0.60;99.90;;;;;;5056009;28;20189;-77
2023/12/18 02:54:45;;;;;;;19.03;10.67;;;0.60;99.90;;;;;;5056619;28;20194;-77
2023/12/18 02:57:11;;;;;;;16.47;10.77;;;0.60;99.90;;;;;;5038145;28;20187;-78
2023/12/18 02:59:37;;;;;;;17.00;11.00;;;0.60;99.90;;;;;;5067992;28;20215;-77
2023/12/18 03:02:03;;;;;;;16.80;10.27;;;0.50;99.90;;;;;;5059216;28;20181;-76
2023/12/18 03:04:28;;;;;;;12.20;8.37;;;0.50;99.90;;;;;;5056160;28;20248;-78
2023/12/18 03:06:54;;;;;;;14.80;9.03;;;0.60;99.90;;;;;;5037970;28;20186;-77
2023/12/18 03:09:20;;;;;;;12.67;8.23;;;0.50;99.90;;;;;;5073662;28;20191;-78
2023/12/18 03:11:47;;;;;;;10.03;7.07;;;0.50;99.90;;;;;;5066199;28;20726;-80
2023/12/18 03:14:13;;;;;;;13.67;7.77;;;0.50;99.90;;;;;;5056196;28;20261;-79
2023/12/18 03:16:38;;;;;;;8.43;6.20;;;0.50;99.90;;;;;;5055086;28;20274;-77
2023/12/18 03:19:04;;;;;;;8.77;6.33;;;0.60;99.90;;;;;;5055794;28;20201;-79
2023/12/18 03:21:30;;;;;;;10.67;6.23;;;0.60;99.90;;;;;;5054753;28;20218;-77
2023/12/18 03:23:56;;;;;;;8.73;6.27;;;0.50;99.90;;;;;;5055601;28;20287;-78
2023/12/18 03:26:22;;;;;;;7.07;6.07;;;0.60;99.90;;;;;;5056555;28;20193;-77
2023/12/18 03:28:48;;;;;;;6.37;5.70;;;0.50;99.90;;;;;;5069212;28;20184;-80
2023/12/18 03:31:14;;;;;;;10.80;6.70;;;0.50;99.90;;;;;;5074739;28;20221;-80
2023/12/18 03:33:41;;;;;;;12.13;8.37;;;0.40;99.90;;;;;;5071431;28;20197;-79
2023/12/18 03:36:08;;;;;;;12.87;7.77;;;0.40;99.90;;;;;;5058793;28;20217;-80
2023/12/18 03:38:33;;;;;;;14.20;8.57;;;0.40;99.90;;;;;;5054985;28;20191;-80
2023/12/18 03:41:00;;;;;;;14.03;8.90;;;0.50;99.90;;;;;;5054938;28;20183;-79
2023/12/18 03:43:26;;;;;;;13.13;9.07;;;0.50;99.90;;;;;;5055083;28;20253;-78
2023/12/18 03:45:52;;;;;;;17.77;9.57;;;0.50;99.90;;;;;;5055088;28;20171;-76
2023/12/18 03:48:19;;;;;;;14.17;8.90;;;0.60;99.90;;;;;;5055117;28;20334;-77
2023/12/18 03:50:45;;;;;;;13.53;9.00;;;0.60;99.90;;;;;;5054890;28;20177;-80
2023/12/18 03:53:11;;;;;;;12.97;9.10;;;0.60;99.90;;;;;;5050375;28;20639;-79
2023/12/18 03:55:38;;;;;;;14.60;9.47;;;0.50;99.90;;;;;;5054827;28;20189;-78
2023/12/18 03:58:04;;;;;;;18.30;9.97;;;0.50;99.90;;;;;;5066635;28;20239;-79
2023/12/18 04:00:30;;;;;;;13.93;10.13;;;0.50;99.90;;;;;;5096527;28;20189;-77
2023/12/18 04:02:55;;;;;;;17.67;11.27;;;0.50;99.90;;;;;;5099454;28;20266;-77
2023/12/18 04:05:24;;;;;;;18.73;11.40;;;0.50;99.90;;;;;;5105716;28;20228;-78
2023/12/18 04:07:50;;;;;;;19.23;10.43;;;0.40;99.90;;;;;;5104435;28;20185;-78
2023/12/18 04:10:16;;;;;;;15.93;11.00;;;0.40;99.90;;;;;;5095260;28;20249;-77
2023/12/18 04:12:42;;;;;;;16.97;12.17;;;0.40;99.90;;;;;;5095810;28;20165;-79
2023/12/18 04:15:09;;;;;;;18.80;11.83;;;0.50;99.90;;;;;;5096507;28;20172;-79
2023/12/18 04:17:36;;;;;;;17.73;11.90;;;0.50;99.90;;;;;;5096280;28;20578;-78
2023/12/18 04:20:02;;;;;;;21.37;12.37;;;0.40;99.90;;;;;;5095654;28;20229;-80
2023/12/18 04:22:28;;;;;;;19.40;12.97;;;-0.10;99.90;;;;;;5095055;28;20200;-80
2023/12/18 04:24:53;;;;;;;19.17;13.17;;;0.40;99.90;;;;;;5095581;28;20181;-76
2023/12/18 04:27:19;;;;;;;19.80;12.57;;;0.40;99.90;;;;;;5076920;28;20183;-79
2023/12/18 04:29:45;;;;;;;19.00;12.77;;;0.30;99.90;;;;;;5094402;28;20210;-80
2023/12/18 04:32:11;;;;;;;18.00;12.77;;;0.30;99.90;;;;;;5094728;28;20502;-80
2023/12/18 04:34:36;;;;;;;18.70;12.97;;;0.30;99.90;;;;;;5094954;28;20180;-78
2023/12/18 04:37:02;;;;;;;22.03;14.07;;;0.30;99.90;;;;;;5095747;28;20207;-74
2023/12/18 04:39:29;;;;;;;19.43;14.23;;;0.30;99.90;;;;;;5108416;28;20201;-78
2023/12/18 04:41:54;;;;;;;19.57;13.50;;;0.20;99.90;;;;;;5103714;28;20173;-78
2023/12/18 04:44:20;;;;;;;24.07;14.43;;;0.30;99.90;;;;;;5094080;28;20211;-78
2023/12/18 04:46:47;;;;;;;22.93;13.17;;;0.20;99.90;;;;;;5093951;28;20174;-78
2023/12/18 04:49:13;;;;;;;18.43;13.03;;;0.20;99.90;;;;;;5094184;28;20516;-78
2023/12/18 04:51:38;;;;;;;22.10;13.23;;;0.20;99.90;;;;;;5093920;28;20175;-78
2023/12/18 04:54:04;;;;;;;20.97;13.27;;;0.20;99.90;;;;;;5094139;28;20568;-80
2023/12/18 04:56:30;;;;;;;18.37;12.77;;;0.20;99.90;;;;;;5094312;28;20227;-81
2023/12/18 04:58:56;;;;;;;20.87;12.10;;;0.30;99.90;;;;;;5094043;28;20230;-77
2023/12/18 05:01:21;;;;;;;17.47;11.77;;;0.30;99.90;;;;;;5094114;28;20204;-79
2023/12/18 05:03:47;;;;;;;17.23;12.07;;;0.30;99.90;;;;;;5094100;28;20694;-79
2023/12/18 05:06:27;;;;;;;16.43;11.20;;;0.30;99.90;;;;;;5075560;28;20641;-80
2023/12/18 05:08:53;;;;;;;13.77;10.03;;;0.30;99.90;;;;;;5093537;28;20176;-78
2023/12/18 05:11:23;;;;;;;17.93;11.30;;;0.30;99.90;;;;;;5093669;28;20630;-77
2023/12/18 05:13:49;;;;;;;13.57;9.77;;;0.20;99.90;;;;;;5093206;28;20168;-78
2023/12/18 05:16:16;;;;;;;14.40;9.17;;;0.20;99.90;;;;;;5093994;28;20173;-78
2023/12/18 05:18:42;;;;;;;11.37;8.73;;;0.20;99.90;;;;;;5076242;28;20510;-77
2023/12/18 05:21:10;;;;;;;12.27;9.00;;;0.30;99.90;;;;;;5103043;28;20179;-77
2023/12/18 05:23:36;;;;;;;12.27;8.67;;;0.20;99.90;;;;;;5093606;28;20290;-78
2023/12/18 05:26:01;;;;;;;11.37;8.27;;;0.20;99.90;;;;;;5093655;28;20256;-79
2023/12/18 05:28:28;;;;;;;10.37;8.37;;;0.20;99.90;;;;;;5093786;28;20226;-80
2023/12/18 05:30:54;;;;;;;13.67;9.00;;;0.20;99.90;;;;;;5100005;28;20222;-78
2023/12/18 05:33:20;;;;;;;12.63;7.80;;;0.10;99.90;;;;;;5082688;28;20184;-77
2023/12/18 05:35:46;;;;;;;12.03;9.10;;;0.00;99.90;;;;;;5100950;28;20169;-79
2023/12/18 05:38:11;;;;;;;14.90;10.10;;;0.00;99.90;;;;;;5101098;28;20244;-77
2023/12/18 05:40:38;;;;;;;12.50;9.03;;;-0.10;99.90;;;;;;5099691;28;20265;-79
2023/12/18 05:43:04;;;;;;;15.80;9.80;;;0.10;99.90;;;;;;5102622;28;20195;-78
2023/12/18 05:45:34;;;;;;;15.63;10.07;;;0.10;99.90;;;;;;5101474;28;20193;-77
2023/12/18 05:48:00;;;;;;;12.63;9.53;;;0.10;99.90;;;;;;5053360;28;20178;-79
2023/12/18 05:50:26;;;;;;;13.57;10.37;;;0.10;99.90;;;;;;5066362;28;20652;-78
2023/12/18 05:52:52;;;;;;;17.07;11.27;;;0.10;99.90;;;;;;5069151;28;20177;-75
2023/12/18 05:55:18;;;;;;;16.93;10.10;;;0.10;99.90;;;;;;5080058;28;20188;-76
2023/12/18 05:57:44;;;;;;;13.87;9.27;;;0.10;99.90;;;;;;5077300;28;20303;-77
2023/12/18 06:00:10;;;;;;;12.13;9.33;;;0.10;99.90;;;;;;5088184;28;20172;-78
2023/12/18 06:02:36;;;;;;;15.93;10.23;;;0.10;99.90;;;;;;5072424;28;20221;-77
2023/12/18 06:05:03;;;;;;;16.27;9.53;;;0.10;99.90;;;;;;5070001;28;20260;-77
2023/12/18 06:07:29;;;;;;;11.70;9.07;;;0.10;99.90;;;;;;5081458;28;20184;-77
2023/12/18 06:09:55;;;;;;;13.60;9.23;;;0.10;99.90;;;;;;5071701;28;20204;-78
2023/12/18 06:12:21;;;;;;;14.93;9.17;;;0.10;99.90;;;;;;5059552;28;20178;-78
2023/12/18 06:14:47;;;;;;;12.03;9.53;;;0.10;99.90;;;;;;5080597;28;20180;-79
2023/12/18 06:17:12;;;;;;;16.77;9.87;;;0.10;99.90;;;;;;5080077;28;20260;-78
2023/12/18 06:19:39;;;;;;;14.27;10.00;;;0.10;99.90;;;;;;5079593;28;20214;-81
2023/12/18 06:22:09;;;;;;;13.80;8.93;;;0.10;99.90;;;;;;5079448;28;20299;-77
2023/12/18 06:24:38;;;;;;;18.90;10.37;;;0.10;99.90;;;;;;5078916;28;20220;-78
2023/12/18 06:27:04;;;;;;;14.93;9.67;;;0.10;99.90;;;;;;5061919;28;20200;-78
2023/12/18 06:29:30;;;;;;;16.90;10.57;;;0.10;99.90;;;;;;5081665;28;20646;-76
2023/12/18 06:31:55;;;;;;;17.70;10.70;;;0.20;99.90;;;;;;5090928;28;20192;-79
2023/12/18 06:34:21;;;;;;;15.70;10.33;;;0.20;99.90;;;;;;5093495;28;20164;-79
2023/12/18 06:36:47;;;;;;;14.87;10.07;;;0.10;99.90;;;;;;5083727;28;20192;-79
2023/12/18 06:39:14;;;;;;;20.07;11.40;;;0.10;99.90;;;;;;5075225;28;20189;-80
2023/12/18 06:41:40;;;;;;;17.57;11.07;;;0.10;99.90;;;;;;5072480;28;20189;-78
2023/12/18 06:44:06;;;;;;;17.40;11.37;;;0.10;99.90;;;;;;5036960;28;20226;-79
2023/12/18 06:46:33;;;;;;;15.67;10.60;;;0.20;99.90;;;;;;5056244;28;20197;-80
2023/12/18 06:49:01;;;;;;;20.20;10.73;;;0.20;99.90;;;;;;5056564;28;20182;-79
2023/12/18 06:51:26;;;;;;;11.10;9.53;;;0.30;99.90;;;;;;5050520;28;20630;-81
2023/12/18 06:53:52;;;;;;;14.10;10.23;;;0.30;99.90;;;;;;5075357;28;20178;-78
2023/12/18 06:56:18;;;;;;;16.53;11.17;;;0.30;99.90;;;;;;5062651;28;20189;-79
2023/12/18 06:58:44;;;;;;;11.70;7.90;;;0.40;99.90;;;;;;5054147;28;20225;-78
2023/12/18 07:01:10;;;;;;;13.50;8.90;;;0.40;99.90;;;;;;5055916;28;20187;-78
2023/12/18 07:03:36;;;;;;;13.37;8.07;;;0.50;99.90;;;;;;5055179;28;20206;-79
2023/12/18 07:06:02;;;;;;;10.13;7.43;;;0.60;99.90;;;;;;5055590;28;20223;-79
2023/12/18 07:08:29;;;;;;;11.17;8.07;;;0.60;99.90;;;;;;5061471;28;20235;-79
2023/12/18 07:10:57;;;;;;;9.90;7.30;;;0.80;99.90;;;;;;5063793;28;20169;-77
2023/12/18 07:13:23;;;;;;;8.50;6.40;;;0.90;99.90;;;;;;5055897;28;20190;-78
2023/12/18 07:15:48;;;;;;;9.57;6.13;;;1.00;99.90;;;;;;5056603;28;20241;-80
2023/12/18 07:18:14;;;;;;;10.13;6.93;;;1.00;99.90;;;;;;5055638;28;20755;-79
2023/12/18 07:20:41;;;;;;;7.63;6.20;;;0.90;99.90;;;;;;5055831;28;20175;-78
2023/12/18 07:23:08;;;;;;;7.87;5.90;;;0.90;99.90;;;;;;5042096;28;20207;-79
2023/12/18 07:25:34;;;;;;;9.63;6.60;;;1.00;99.90;;;;;;5056107;28;20214;-79
2023/12/18 07:27:59;;;;;;;7.80;5.83;;;0.90;99.90;;;;;;5056763;28;20199;-79
2023/12/18 07:30:25;;;;;;;9.90;6.57;;;0.90;99.90;;;;;;5055918;28;20175;-77
2023/12/18 07:32:51;;;;;;;7.40;6.30;;;0.90;99.90;;;;;;5054929;28;20186;-76
2023/12/18 07:35:17;;;;;;;10.03;6.23;;;1.00;99.90;;;;;;5037741;28;20244;-79
2023/12/18 07:37:43;;;;;;;7.73;6.30;;;1.00;99.90;;;;;;5055077;28;20182;-77
2023/12/18 07:40:09;;;;;;;10.27;6.43;;;1.00;99.90;;;;;;5055436;28;20174;-77
2023/12/18 07:42:35;;;;;;;10.43;7.70;;;1.10;99.90;;;;;;5055105;28;20293;-78
2023/12/18 07:45:00;;;;;;;14.87;9.67;;;1.10;99.90;;;;;;5060326;28;20250;-76
2023/12/18 07:47:26;;;;;;;11.43;8.03;;;1.00;99.90;;;;;;5074591;28;20214;-78
2023/12/18 07:49:52;;;;;;;17.30;8.90;;;1.00;99.90;;;;;;5067011;28;20177;-79
2023/12/18 07:52:18;;;;;;;15.47;9.03;;;1.00;99.90;;;;;;5069036;28;20187;-79
2023/12/18 07:54:43;;;;;;;15.97;9.60;;;1.10;99.90;;;;;;5057145;28;20547;-78
2023/12/18 07:57:09;;;;;;;12.10;9.30;;;1.10;99.90;;;;;;5061602;28;20371;-77
2023/12/18 07:59:39;;;;;;;17.80;9.77;;;1.00;99.90;;;;;;5058029;28;20230;-79
2023/12/18 08:02:07;;;;;;;13.03;8.63;;;1.20;99.90;;;;;;5055215;28;20655;-77
2023/12/18 08:04:33;;;;;;;14.10;9.37;;;1.10;99.90;;;;;;5055331;28;20546;-79
2023/12/18 08:06:58;;;;;;;15.73;9.10;;;1.20;99.90;;;;;;5054548;28;20668;-79
2023/12/18 08:09:26;;;;;;;14.17;8.80;;;1.20;99.90;;;;;;5038412;28;20270;-78
2023/12/18 08:11:53;;;;;;;14.43;8.97;;;1.20;99.90;;;;;;5049526;28;20197;-78
2023/12/18 08:14:19;;;;;;;13.13;9.20;;;1.30;99.90;;;;;;5040167;28;20217;-78
2023/12/18 08:16:44;;;;;;;17.53;9.07;;;1.40;99.90;;;;;;5054761;28;20207;-79
2023/12/18 08:19:10;;;;;;;13.87;8.80;;;1.40;99.90;;;;;;5038504;28;20727;-77
2023/12/18 08:21:36;;;;;;;15.40;8.97;;;1.50;99.90;;;;;;5070846;28;20250;-78
2023/12/18 08:24:02;;;;;;;16.37;9.10;;;1.50;99.90;;;;;;5074835;28;20213;-78
2023/12/18 08:26:27;;;;;;;17.37;9.13;;;1.60;99.90;;;;;;5057326;28;20206;-79
2023/12/18 08:28:53;;;;;;;14.33;8.67;;;1.60;99.90;;;;;;5055298;28;20258;-78
2023/12/18 08:31:19;;;;;;;15.80;9.33;;;1.70;99.90;;;;;;5066450;28;20167;-78
2023/12/18 08:33:45;;;;;;;16.13;9.37;;;1.70;99.90;;;;;;5060035;28;20190;-78
2023/12/18 08:36:11;;;;;;;13.37;8.67;;;1.70;99.90;;;;;;5054423;28;20654;-79
2023/12/18 08:38:37;;;;;;;13.63;9.50;;;1.80;99.90;;;;;;5054217;28;20220;-78
2023/12/18 08:41:03;;;;;;;14.30;9.57;;;1.80;99.90;;;;;;5054290;28;20172;-77
2023/12/18 08:43:28;;;;;;;17.23;9.30;;;1.80;99.90;;;;;;5054011;28;20682;-75
2023/12/18 08:45:54;;;;;;;13.47;9.37;;;1.90;99.90;;;;;;5054384;28;20174;-77
2023/12/18 08:48:20;;;;;;;11.83;9.20;;;1.90;99.90;;;;;;5061199;28;20190;-76
2023/12/18 08:50:45;;;;;;;12.07;9.40;;;1.90;99.90;;;;;;5062899;28;20265;-79
2023/12/18 08:53:11;;;;;;;15.37;9.33;;;2.00;99.90;;;;;;5054342;28;20212;-78
2023/12/18 08:55:39;;;;;;;14.03;9.50;;;2.10;99.90;;;;;;5053890;28;20594;-78
2023/12/18 08:58:08;;;;;;;15.30;9.90;;;2.20;99.90;;;;;;5053497;28;20227;-77
2023/12/18 09:00:34;;;;;;;15.47;8.80;;;2.30;99.90;;;;;;5053889;28;20180;-77
2023/12/18 09:03:00;;;;;;;14.57;9.00;;;2.40;99.90;;;;;;5053433;28;20210;-77
2023/12/18 09:05:27;;;;;;;11.57;8.70;;;2.50;99.90;;;;;;5053895;28;20539;-78
2023/12/18 09:07:53;;;;;;;12.53;8.63;;;2.60;99.90;;;;;;5035887;28;20176;-79
2023/12/18 09:10:22;;;;;;;13.97;8.47;;;2.60;99.90;;;;;;5053955;28;20180;-79
2023/12/18 09:12:54;;;;;;;10.50;8.07;;;2.80;99.90;;;;;;5053474;28;20186;-79
2023/12/18 09:15:19;;;;;;;13.43;8.63;;;2.80;99.90;;;;;;5058319;28;20168;-77
2023/12/18 09:17:45;;;;;;;14.77;8.50;;;2.90;99.90;;;;;;5058261;28;20184;-77
2023/12/18 09:20:11;;;;;;;11.83;8.20;;;2.90;99.90;;;;;;5056157;28;20177;-78
2023/12/18 09:22:40;;;;;;;13.03;8.87;;;2.90;99.90;;;;;;5040658;28;20210;-78
2023/12/18 09:25:06;;;;;;;14.33;8.57;;;3.00;99.90;;;;;;5056574;28;20199;-77
2023/12/18 09:27:36;;;;;;;10.07;7.77;;;3.00;99.90;;;;;;5055498;28;20236;-78
2023/12/18 09:30:02;;;;;;;16.97;8.10;;;2.90;99.90;;;;;;5054160;28;20263;-78
2023/12/18 09:32:28;;;;;;;13.30;8.30;;;3.10;99.90;;;;;;5053711;28;20635;-78
2023/12/18 09:34:53;;;;;;;11.13;8.53;;;3.20;99.90;;;;;;5054343;28;20178;-78
2023/12/18 09:37:19;;;;;;;11.73;8.97;;;3.20;99.90;;;;;;5059382;28;20214;-74
2023/12/18 09:39:45;;;;;;;13.70;8.63;;;3.30;99.90;;;;;;5067041;28;20192;-78
2023/12/18 09:42:11;;;;;;;14.63;9.13;;;3.40;99.90;;;;;;5058316;28;20194;-78
2023/12/18 09:44:38;;;;;;;12.83;9.40;;;3.40;99.90;;;;;;5054354;28;20209;-78
2023/12/18 09:47:04;;;;;;;17.77;9.80;;;3.50;99.90;;;;;;5055441;28;20172;-78
2023/12/18 09:49:30;;;;;;;19.30;9.73;;;3.50;99.90;;;;;;5053942;28;20257;-76
2023/12/18 09:52:11;;;;;;;21.50;11.80;;;3.60;99.90;;;;;;5035251;28;20174;-81
2023/12/18 09:54:40;;;;;;;18.73;10.50;;;3.60;99.90;;;;;;5053169;28;20231;-77
2023/12/18 09:57:07;;;;;;;19.53;10.50;;;3.70;99.90;;;;;;5053942;28;20183;-80
2023/12/18 09:59:36;;;;;;;19.70;11.30;;;3.80;99.90;;;;;;5053603;28;20249;-79
2023/12/18 10:02:02;;;;;;;20.27;10.07;;;3.90;99.90;;;;;;5053246;28;20228;-78
2023/12/18 10:04:28;;;;;;;14.63;9.70;;;4.20;99.90;;;;;;5052899;28;20543;-78
2023/12/18 10:06:54;;;;;;;18.47;10.33;;;4.30;99.90;;;;;;5052815;28;20224;-76
2023/12/18 10:09:21;;;;;;;21.37;11.60;;;4.40;99.90;;;;;;5052920;28;20178;-77
2023/12/18 10:11:48;;;;;;;19.50;12.80;;;4.60;99.90;;;;;;5054366;28;20266;-77
2023/12/18 10:14:14;;;;;;;19.90;12.73;;;4.60;99.90;;;;;;5067789;28;20198;-79
2023/12/18 10:16:41;;;;;;;20.37;12.40;;;4.50;99.90;;;;;;5062105;28;20178;-78
2023/12/18 10:19:08;;;;;;;21.93;13.70;;;4.50;99.90;;;;;;5061379;28;20252;-77
2023/12/18 10:21:34;;;;;;;21.87;13.33;;;4.50;99.90;;;;;;5056952;28;20171;-79
2023/12/18 10:24:01;;;;;;;24.57;13.50;;;4.50;99.90;;;;;;5057325;28;20218;-79
2023/12/18 10:26:28;;;;;;;24.17;14.60;;;4.60;99.90;;;;;;5057217;28;20187;-78
2023/12/18 10:28:54;;;;;;;27.80;15.30;;;4.60;99.90;;;;;;5056545;28;20176;-79
2023/12/18 10:31:20;;;;;;;28.27;13.97;;;4.70;99.90;;;;;;5039035;28;20181;-79
2023/12/18 10:33:48;;;;;;;23.87;14.43;;;4.80;99.90;;;;;;5059608;28;20203;-77
2023/12/18 10:36:18;;;;;;;19.57;13.07;;;4.90;99.90;;;;;;5061985;28;20256;-77
2023/12/18 10:38:50;;;;;;;18.07;13.03;;;4.90;99.90;;;;;;5058643;28;20220;-78
2023/12/18 10:41:21;;;;;;;24.53;12.27;;;5.00;99.90;;;;;;5057877;28;20184;-78
2023/12/18 10:43:50;;;;;;;19.53;12.07;;;5.10;99.90;;;;;;5056912;28;20306;-80
2023/12/18 10:46:16;;;;;;;15.97;11.40;;;5.10;99.90;;;;;;5056814;28;20226;-79
2023/12/18 10:48:42;;;;;;;17.87;10.87;;;5.20;99.90;;;;;;5057050;28;20228;-79
2023/12/18 10:51:10;;;;;;;18.70;11.00;;;5.20;99.90;;;;;;5056954;28;20180;-80
2023/12/18 10:53:37;;;;;;;27.63;10.57;;;5.30;99.90;;;;;;5056761;28;20178;-75
2023/12/18 10:56:06;;;;;;;14.80;9.17;;;5.30;99.90;;;;;;5062422;28;20186;-77
2023/12/18 10:58:34;;;;;;;15.17;8.70;;;5.40;99.90;;;;;;5056825;28;20225;-80
2023/12/18 11:01:03;;;;;;;13.10;9.17;;;5.50;99.90;;;;;;5056301;28;20203;-76
2023/12/18 11:03:29;;;;;;;14.60;8.50;;;5.60;99.90;;;;;;5055793;28;20291;-77
2023/12/18 11:05:56;;;;;;;10.90;7.83;;;5.60;99.90;;;;;;5056615;28;20181;-76
2023/12/18 11:08:22;;;;;;;14.83;8.80;;;5.70;99.90;;;;;;5056554;28;20189;-77
2023/12/18 11:10:48;;;;;;;12.50;8.03;;;5.80;99.90;;;;;;5038191;28;20181;-76
2023/12/18 11:13:35;;;;;;;10.13;7.97;;;5.80;99.90;;;;;;5057774;28;20186;-77
2023/12/18 11:16:21;;;;;;;12.33;7.53;;;5.90;99.90;;;;;;5041753;28;20185;-79
2023/12/18 11:19:06;;;;;;;10.90;7.63;;;5.90;99.90;;;;;;5055566;28;20231;-78
2023/12/18 11:21:34;;;;;;;10.57;7.17;;;6.00;99.90;;;;;;5056224;28;20181;-78
2023/12/18 11:24:00;;;;;;;11.33;7.90;;;6.00;99.90;;;;;;5021708;28;20230;-78
2023/12/18 11:26:29;;;;;;;11.70;7.70;;;6.10;99.90;;;;;;5055381;28;20668;-77
2023/12/18 11:28:58;;;;;;;8.07;7.13;;;6.10;99.90;;;;;;5055369;28;20182;-78
2023/12/18 11:31:24;;;;;;;9.40;7.43;;;6.10;99.90;;;;;;5057355;28;20237;-77
2023/12/18 11:34:04;;;;;;;9.57;7.13;;;6.20;99.90;;;;;;5068245;28;20192;-76
2023/12/18 11:36:30;;;;;;;10.47;7.47;;;6.30;99.90;;;;;;5039697;28;20551;-79
2023/12/18 11:38:59;;;;;;;10.33;7.07;;;6.30;99.90;;;;;;5056963;28;20534;-78
2023/12/18 11:41:39;;;;;;;13.43;7.67;;;6.50;99.90;;;;;;5057118;28;20643;-75
2023/12/18 11:44:10;;;;;;;8.50;6.87;;;6.50;99.90;;;;;;5061712;28;20220;-77
2023/12/18 11:46:38;;;;;;;10.07;7.93;;;6.60;99.90;;;;;;5057325;28;20175;-77
2023/12/18 11:49:08;;;;;;;9.83;7.23;;;6.60;99.90;;;;;;5059475;28;20312;-79
2023/12/18 11:51:34;;;;;;;8.87;7.10;;;6.80;99.90;;;;;;5062450;28;20610;-75
2023/12/18 11:54:01;;;;;;;7.37;6.53;;;6.80;99.90;;;;;;5058633;28;20211;-77
2023/12/18 11:56:28;;;;;;;8.63;6.47;;;6.80;99.90;;;;;;5056183;28;20199;-77
2023/12/18 11:58:55;;;;;;;9.03;6.67;;;6.90;99.90;;;;;;5057220;28;20227;-76
2023/12/18 12:01:21;;;;;;;13.97;7.30;;;6.90;99.90;;;;;;5039058;28;20611;-77
2023/12/18 12:03:47;;;;;;;8.13;6.67;;;7.00;99.90;;;;;;5058832;28;20235;-75
2023/12/18 12:06:14;;;;;;;8.27;5.90;;;7.00;99.90;;;;;;5062113;28;20206;-76
2023/12/18 12:08:50;;;;;;;11.83;7.03;;;7.10;99.90;;;;;;5057330;28;20233;-76
2023/12/18 12:11:16;;;;;;;9.53;6.40;;;7.10;99.90;;;;;;5055720;28;20184;-77
2023/12/18 12:13:45;;;;;;;10.00;6.83;;;7.20;99.90;;;;;;5064471;28;20168;-76
2023/12/18 12:16:18;;;;;;;11.73;6.40;;;7.20;99.90;;;;;;5071581;28;20166;-75
2023/12/18 12:18:50;;;;;;;8.53;6.30;;;7.30;99.90;;;;;;5047539;28;20171;-79
2023/12/18 12:21:17;;;;;;;9.73;6.90;;;7.30;99.90;;;;;;5057398;28;20164;-78
2023/12/18 12:23:47;;;;;;;15.87;8.90;;;7.40;99.90;;;;;;5040817;28;20211;-77
2023/12/18 12:26:18;;;;;;;18.37;9.93;;;7.50;99.90;;;;;;5059374;28;20258;-77
2023/12/18 12:28:44;;;;;;;10.30;6.87;;;7.50;99.90;;;;;;5063103;28;20167;-78
2023/12/18 12:31:10;;;;;;;13.17;7.70;;;7.50;99.90;;;;;;5062132;28;20548;-77
2023/12/18 12:33:46;;;;;;;9.90;7.27;;;7.60;99.90;;;;;;5060507;28;20268;-78
2023/12/18 12:36:20;;;;;;;10.90;7.07;;;7.70;99.90;;;;;;5059450;28;20179;-76
2023/12/18 12:38:46;;;;;;;10.37;7.37;;;7.50;99.90;;;;;;5042535;28;20176;-77
2023/12/18 12:41:12;;;;;;;7.63;6.63;;;7.70;99.90;;;;;;5067139;28;20699;-77
2023/12/18 12:43:38;;;;;;;10.23;7.20;;;7.70;99.90;;;;;;5058481;28;20211;-78